EYKA

Kaunas International Airport

Kaunas, Lithuania
METAR EYKA 161750Z 18004KT 130V220 9999 BKN006 OVC018 M01/M03 Q1000 R08/29//95
Observed Flight Rules
Jan-16 @ 17:50 UTC (34 minutes ago) Instrument Flight Rules
Wind Visibility Clouds
180° at 4 knots 10,000+ meters
  • Broken at 600' AGL
  • Overcast at 1,800' AGL
Temperatures Readings
Current -1°C / 30°F
Dewpoint -3°C / 27°F
Humidity 86%
Altimeter 29.53" Hg
Pressure 999.92 hPa
Elevation 77
METAR EYKA 161750Z 18004KT 130V220 9999 BKN006 OVC018 M01/M03 Q1000 R08/29//95
Observed Flight Rules
Jan-16 @ 17:50 UTC
(34 minutes ago)
IFR
Wind Visibility
180° at 4 knots 10,000+ meters
Clouds
  • Broken at 600' AGL
  • Overcast at 1,800' AGL
Temperature Dewpoint
-1°C / 30°F -3°C / 27°F
Humidity Altimeter Pressure
86% 29.53" Hg 999.92 hPa